Time;durP1;ratioP1;P1;durP2;ratioP2;P2;SDS_P1;SDS_P2;PMS_P1;PMS_P2;Temp;Humidity;BMP_temperature;BMP_pressure;BME280_temperature;BME280_humidity;BME280_pressure;Samples;Min_cycle;Max_cycle;Signal;HPM_P1;HPM_P2
2022/04/03 00:05:00;;;;;;;70.67;66.07;;;;;;;1.93;100.00;102690.66;2013296;71;32979;-71
2022/04/03 00:10:46;;;;;;;70.77;66.17;;;;;;;1.95;100.00;102701.45;2016532;71;32895;-69
2022/04/03 00:16:32;;;;;;;69.50;64.73;;;;;;;1.91;100.00;102692.74;2016506;71;32814;-69
2022/04/03 00:22:17;;;;;;;68.03;63.13;;;;;;;1.37;100.00;102695.48;2013099;71;32952;-70
2022/04/03 00:28:02;;;;;;;68.93;64.63;;;;;;;1.33;100.00;102697.39;2000042;71;32829;-71
2022/04/03 00:33:46;;;;;;;72.53;67.83;;;;;;;1.56;100.00;102691.95;2013047;71;33372;-70
2022/04/03 00:39:30;;;;;;;71.00;66.40;;;;;;;1.73;100.00;102697.66;2009767;71;32857;-69
2022/04/03 00:45:16;;;;;;;71.83;67.13;;;;;;;1.73;100.00;102698.52;1994867;71;32942;-69
2022/04/03 00:51:00;;;;;;;69.60;65.07;;;;;;;1.65;100.00;102693.61;2016610;71;32830;-70
2022/04/03 00:56:44;;;;;;;70.30;65.53;;;;;;;1.56;100.00;102701.55;1974119;72;33403;-71
2022/04/03 01:02:31;;;;;;;70.40;65.80;;;;;;;1.63;100.00;102707.48;2013160;71;32911;-71
2022/04/03 01:08:14;;;;;;;69.20;64.67;;;;;;;1.52;100.00;102701.06;1997052;70;33261;-69
2022/04/03 01:13:59;;;;;;;68.23;63.77;;;;;;;1.28;100.00;102700.66;2008229;71;32872;-70
2022/04/03 01:19:44;;;;;;;67.73;63.53;;;;;;;1.12;100.00;102692.54;2008079;71;32955;-71
2022/04/03 01:25:28;;;;;;;68.60;64.30;;;;;;;1.35;100.00;102697.56;2009974;71;32849;-71
2022/04/03 01:31:13;;;;;;;67.47;63.07;;;;;;;1.00;100.00;102696.70;2007762;71;32914;-73
2022/04/03 01:36:58;;;;;;;69.63;65.13;;;;;;;1.07;100.00;102703.70;2018336;71;33422;-73
2022/04/03 01:42:42;;;;;;;70.43;66.03;;;;;;;1.11;100.00;102704.54;2016810;71;32834;-72
2022/04/03 01:48:27;;;;;;;70.03;65.40;;;;;;;0.99;100.00;102707.81;2004173;71;32848;-71
2022/04/03 01:54:11;;;;;;;68.13;63.63;;;;;;;1.03;100.00;102701.81;2005739;71;32833;-72
2022/04/03 01:59:58;;;;;;;67.03;62.53;;;;;;;1.01;100.00;102697.56;2011316;71;33388;-71
2022/04/03 02:05:42;;;;;;;73.23;68.63;;;;;;;1.14;100.00;102697.33;2011749;71;32759;-70
2022/04/03 02:11:26;;;;;;;65.77;61.53;;;;;;;1.12;100.00;102704.00;2009804;71;32825;-71
2022/04/03 02:17:14;;;;;;;68.60;64.20;;;;;;;1.06;100.00;102703.36;2016764;71;32906;-71
2022/04/03 02:22:59;;;;;;;70.90;66.23;;;;;;;1.20;100.00;102702.59;2013183;71;32948;-72
2022/04/03 02:28:43;;;;;;;70.37;65.77;;;;;;;1.10;100.00;102699.23;2011309;71;32853;-71
2022/04/03 02:34:27;;;;;;;69.07;64.47;;;;;;;1.05;100.00;102703.87;2009389;71;32890;-72
2022/04/03 02:40:14;;;;;;;65.00;60.70;;;;;;;1.16;100.00;102706.72;2014838;71;33003;-72
2022/04/03 02:45:58;;;;;;;67.07;62.87;;;;;;;0.89;100.00;102704.80;2009930;71;32759;-72
2022/04/03 02:51:43;;;;;;;67.33;63.00;;;;;;;0.98;100.00;102699.30;2009440;71;32896;-71
2022/04/03 02:57:27;;;;;;;68.87;64.33;;;;;;;1.09;100.00;102692.91;2014887;71;32837;-71
2022/04/03 03:03:14;;;;;;;74.33;69.43;;;;;;;1.49;100.00;102683.63;2016525;71;32836;-71
2022/04/03 03:08:58;;;;;;;73.50;69.00;;;;;;;1.60;100.00;102696.04;2006170;71;32863;-71
2022/04/03 03:14:42;;;;;;;71.57;67.07;;;;;;;1.38;100.00;102688.13;2002104;71;32836;-71
2022/04/03 03:20:26;;;;;;;74.93;70.43;;;;;;;1.28;100.00;102688.89;2007873;71;32779;-68
2022/04/03 03:26:10;;;;;;;71.30;66.77;;;;;;;1.18;100.00;102681.40;2014684;71;32830;-72
2022/04/03 03:31:54;;;;;;;73.00;68.57;;;;;;;1.12;100.00;102684.84;2011090;71;32975;-70
2022/04/03 03:37:39;;;;;;;71.30;67.10;;;;;;;1.44;100.00;102681.95;2014826;71;33002;-71
2022/04/03 03:43:24;;;;;;;69.67;65.30;;;;;;;1.76;100.00;102683.59;1998416;71;32931;-70
2022/04/03 03:49:10;;;;;;;70.20;66.10;;;;;;;1.33;100.00;102681.82;2003978;71;32849;-71
2022/04/03 03:54:54;;;;;;;69.93;65.63;;;;;;;1.75;100.00;102673.69;1990087;71;32788;-72
2022/04/03 04:00:39;;;;;;;69.60;65.63;;;;;;;1.87;100.00;102676.33;2016941;71;33511;-70
2022/04/03 04:06:23;;;;;;;69.47;65.37;;;;;;;1.76;100.00;102687.19;2013165;71;33368;-72
2022/04/03 04:12:10;;;;;;;71.53;67.33;;;;;;;1.26;100.00;102684.95;2006053;71;33368;-71
2022/04/03 04:17:56;;;;;;;71.13;66.87;;;;;;;1.87;100.00;102687.81;1994547;71;32845;-72
2022/04/03 04:23:40;;;;;;;69.33;65.23;;;;;;;1.95;100.00;102683.63;2006097;71;32777;-72
2022/04/03 04:29:25;;;;;;;70.47;66.30;;;;;;;1.55;100.00;102688.36;2011164;71;32834;-70
2022/04/03 04:35:11;;;;;;;70.10;66.00;;;;;;;1.45;100.00;102690.50;2015034;71;33296;-72
2022/04/03 04:40:55;;;;;;;70.40;66.10;;;;;;;0.81;100.00;102688.38;2003818;71;33417;-72
2022/04/03 04:46:40;;;;;;;70.53;65.83;;;;;;;0.58;100.00;102692.91;2016712;71;32859;-69
2022/04/03 04:52:31;;;;;;;66.73;62.40;;;;;;;0.52;100.00;102692.23;2023708;71;32877;-72
2022/04/03 04:58:15;;;;;;;68.80;64.27;;;;;;;0.46;100.00;102705.25;2013099;71;32811;-71
2022/04/03 05:04:00;;;;;;;64.67;60.17;;;;;;;0.32;100.00;102702.70;2007425;71;33406;-73
2022/04/03 05:09:47;;;;;;;66.40;62.00;;;;;;;0.42;100.00;102702.52;2011351;71;32819;-72
2022/04/03 05:15:33;;;;;;;62.00;57.80;;;;;;;0.39;100.00;102703.70;2008277;70;32750;-69
2022/04/03 05:21:20;;;;;;;64.90;60.73;;;;;;;0.58;100.00;102710.69;1998538;71;33443;-70
2022/04/03 05:27:06;;;;;;;65.53;61.40;;;;;;;0.49;100.00;102710.36;1998706;71;32945;-71
2022/04/03 05:32:50;;;;;;;74.40;69.93;;;;;;;0.94;100.00;102715.72;2011006;71;32831;-72
2022/04/03 05:38:37;;;;;;;64.93;60.93;;;;;;;1.19;100.00;102709.12;2014546;71;33369;-70
2022/04/03 05:44:25;;;;;;;64.47;60.20;;;;;;;0.55;100.00;102719.25;1994585;71;32825;-72
2022/04/03 05:50:19;;;;;;;67.23;62.93;;;;;;;0.36;100.00;102723.70;2048623;69;32834;-72
2022/04/03 05:56:27;;;;;;;65.20;61.00;;;;;;;0.29;100.00;102724.92;1940952;73;33085;-70
2022/04/03 06:02:14;;;;;;;64.50;60.37;;;;;;;0.34;100.00;102738.89;1998564;71;33460;-70
2022/04/03 06:08:19;;;;;;;65.33;61.00;;;;;;;0.71;100.00;102728.78;2014596;71;32889;-73
2022/04/03 06:14:06;;;;;;;66.33;62.03;;;;;;;0.79;100.00;102741.06;2014520;71;32823;-73
2022/04/03 06:19:50;;;;;;;66.33;62.03;;;;;;;0.98;100.00;102746.66;2004236;71;32827;-71
2022/04/03 06:25:34;;;;;;;72.97;68.17;;;;;;;0.95;100.00;102747.50;2009163;70;32857;-72
2022/04/03 06:31:19;;;;;;;69.60;65.30;;;;;;;1.12;100.00;102749.16;2018371;70;32917;-72
2022/04/03 06:37:04;;;;;;;68.40;63.90;;;;;;;1.02;100.00;102748.02;2018476;71;32936;-70
2022/04/03 06:42:51;;;;;;;69.90;65.50;;;;;;;1.49;100.00;102747.12;2018226;71;32913;-72
2022/04/03 06:48:35;;;;;;;71.07;66.63;;;;;;;1.39;100.00;102758.29;1991535;71;32921;-70
2022/04/03 06:54:19;;;;;;;68.60;63.90;;;;;;;1.35;100.00;102756.94;1994983;71;32779;-69
2022/04/03 07:00:05;;;;;;;72.33;67.53;;;;;;;1.55;100.00;102762.82;1994861;71;33323;-71
2022/04/03 07:05:51;;;;;;;70.10;65.53;;;;;;;1.62;100.00;102763.32;2003850;71;32843;-69
2022/04/03 07:11:34;;;;;;;71.47;66.77;;;;;;;1.97;100.00;102774.20;1991347;71;32835;-71
2022/04/03 07:17:19;;;;;;;73.57;69.00;;;;;;;2.45;100.00;102770.23;2006037;71;32780;-72
2022/04/03 07:23:06;;;;;;;72.73;68.03;;;;;;;2.76;100.00;102772.87;2009220;71;33217;-72
2022/04/03 07:28:50;;;;;;;69.80;65.53;;;;;;;2.88;100.00;102768.63;2009971;71;32846;-67
2022/04/03 07:34:34;;;;;;;71.10;66.67;;;;;;;2.99;100.00;102768.70;1996883;71;32784;-67
2022/04/03 07:40:19;;;;;;;71.43;66.77;;;;;;;3.24;100.00;102767.37;2003612;71;32840;-67
2022/04/03 07:46:03;;;;;;;68.83;64.73;;;;;;;3.61;100.00;102753.48;2001989;71;33316;-70
2022/04/03 07:51:47;;;;;;;67.97;63.60;;;;;;;3.73;100.00;102755.20;2014906;71;32902;-67
2022/04/03 07:57:31;;;;;;;67.73;63.50;;;;;;;4.14;100.00;102752.70;2004139;71;32844;-71
2022/04/03 08:03:16;;;;;;;67.50;63.60;;;;;;;4.56;100.00;102750.44;2009984;70;32754;-70
2022/04/03 08:09:01;;;;;;;66.80;62.67;;;;;;;4.93;100.00;102750.59;2002385;71;32849;-70
2022/04/03 08:14:45;;;;;;;67.60;63.53;;;;;;;5.20;100.00;102748.86;2013342;71;32767;-71
2022/04/03 08:20:29;;;;;;;62.90;59.30;;;;;;;5.23;100.00;102752.05;2014740;71;32807;-69
2022/04/03 08:26:14;;;;;;;58.17;55.17;;;;;;;5.89;100.00;102749.09;1998878;71;33246;-69
2022/04/03 08:31:58;;;;;;;58.93;55.63;;;;;;;6.32;100.00;102744.61;2003757;71;32927;-69
2022/04/03 08:37:43;;;;;;;54.17;51.37;;;;;;;6.69;100.00;102743.11;1917896;73;32918;-71
2022/04/03 08:43:32;;;;;;;51.23;48.57;;;;;;;6.82;100.00;102747.25;2000072;71;32889;-71
2022/04/03 08:49:17;;;;;;;47.20;44.77;;;;;;;6.96;100.00;102741.17;2016721;71;33325;-69
2022/04/03 08:55:04;;;;;;;49.17;46.67;;;;;;;7.12;100.00;102733.28;1995072;71;33282;-72
2022/04/03 09:00:46;;;;;;;48.70;46.33;;;;;;;7.41;100.00;102729.66;2016468;71;32893;-73
2022/04/03 09:06:31;;;;;;;46.13;43.83;;;;;;;7.58;100.00;102724.81;2009612;71;33478;-72
2022/04/03 09:12:18;;;;;;;39.47;37.37;;;;;;;7.66;100.00;102719.02;2005749;71;33421;-72
2022/04/03 09:18:04;;;;;;;36.80;34.93;;;;;;;7.60;100.00;102713.54;2005514;71;32821;-70
2022/04/03 09:24:04;;;;;;;37.93;36.03;;;;;;;8.21;100.00;102711.05;2013075;71;32863;-72
2022/04/03 09:29:48;;;;;;;32.50;30.63;;;;;;;8.23;100.00;102704.20;2016357;71;32912;-72
2022/04/03 09:35:36;;;;;;;26.40;25.10;;;;;;;8.66;100.00;102697.91;2005631;71;33294;-71
2022/04/03 09:41:29;;;;;;;27.07;25.60;;;;;;;8.88;100.00;102695.02;2009631;71;33385;-71
2022/04/03 09:47:16;;;;;;;26.83;25.43;;;;;;;8.77;100.00;102692.98;1998366;71;33026;-74
2022/04/03 09:53:06;;;;;;;17.87;16.90;;;;;;;8.49;100.00;102696.78;2011188;71;32842;-75
2022/04/03 09:59:03;;;;;;;18.37;17.40;;;;;;;9.45;100.00;102694.27;2016532;71;32923;-74
2022/04/03 10:04:50;;;;;;;14.90;14.20;;;;;;;9.62;100.00;102684.22;2013443;71;32922;-74
2022/04/03 10:10:36;;;;;;;12.97;12.30;;;;;;;9.31;100.00;102685.79;2014702;71;33065;-73
2022/04/03 10:16:22;;;;;;;12.70;12.03;;;;;;;9.53;100.00;102673.98;2012861;71;33379;-73
2022/04/03 10:22:11;;;;;;;12.80;12.27;;;;;;;10.10;100.00;102668.86;2007302;71;32822;-74
2022/04/03 10:28:01;;;;;;;11.97;11.30;;;;;;;10.45;100.00;102671.19;2005955;71;32786;-74
2022/04/03 10:33:53;;;;;;;11.77;11.17;;;;;;;9.06;100.00;102660.93;2009885;71;32764;-74
2022/04/03 10:39:42;;;;;;;11.97;11.27;;;;;;;9.03;100.00;102660.83;2007610;71;33291;-73
2022/04/03 10:45:34;;;;;;;11.63;11.00;;;;;;;9.68;100.00;102653.28;1991427;71;32761;-71
2022/04/03 10:51:39;;;;;;;11.97;11.37;;;;;;;9.63;100.00;102642.88;2014658;71;32862;-72
2022/04/03 10:57:38;;;;;;;11.90;11.40;;;;;;;9.71;100.00;102634.79;1994646;71;32831;-71
2022/04/03 11:03:59;;;;;;;11.97;11.30;;;;;;;9.73;100.00;102623.75;2009264;71;32817;-70
2022/04/03 11:09:50;;;;;;;11.53;10.93;;;;;;;10.08;100.00;102620.21;2011443;71;32865;-70
2022/04/03 11:15:47;;;;;;;11.20;10.60;;;;;;;10.24;100.00;102608.42;2011575;71;32911;-70
2022/04/03 11:21:43;;;;;;;11.47;10.97;;;;;;;9.80;100.00;102601.42;2002463;71;32759;-71
2022/04/03 11:27:27;;;;;;;10.87;10.37;;;;;;;10.03;100.00;102595.94;2006038;71;33268;-72
2022/04/03 11:33:14;;;;;;;10.63;10.03;;;;;;;10.32;100.00;102592.78;2002272;70;32749;-71
2022/04/03 11:39:00;;;;;;;11.23;10.73;;;;;;;10.33;100.00;102595.34;2011180;71;32985;-71
2022/04/03 11:44:53;;;;;;;10.67;10.17;;;;;;;10.04;100.00;102592.09;2004331;71;32762;-69
2022/04/03 11:50:38;;;;;;;11.37;10.77;;;;;;;9.81;100.00;102582.31;2014570;71;32902;-72
2022/04/03 11:56:26;;;;;;;11.67;10.90;;;;;;;9.68;100.00;102572.80;1991217;71;33364;-77
2022/04/03 12:02:14;;;;;;;12.40;11.70;;;;;;;10.12;100.00;102563.95;2016238;71;32833;-75
2022/04/03 12:08:01;;;;;;;12.87;12.17;;;;;;;10.41;100.00;102563.56;2016280;71;33465;-77
2022/04/03 12:13:47;;;;;;;12.60;11.93;;;;;;;10.72;100.00;102555.37;2016301;71;33411;-75
2022/04/03 12:19:39;;;;;;;12.13;11.43;;;;;;;10.35;100.00;102555.68;1991042;70;32861;-77
2022/04/03 12:25:24;;;;;;;12.23;11.60;;;;;;;10.14;100.00;102567.33;2003521;71;32973;-74
2022/04/03 12:31:15;;;;;;;12.30;11.70;;;;;;;10.20;100.00;102564.17;1994924;71;33246;-74
2022/04/03 12:37:01;;;;;;;12.33;11.73;;;;;;;10.11;100.00;102559.48;2010962;71;32832;-74
2022/04/03 12:43:04;;;;;;;12.37;11.77;;;;;;;9.98;100.00;102558.33;2012535;71;32837;-78
2022/04/03 12:48:53;;;;;;;12.27;11.67;;;;;;;9.80;100.00;102552.32;2011528;71;33370;-79
2022/04/03 12:54:43;;;;;;;11.97;11.27;;;;;;;9.94;100.00;102548.78;2000395;71;32837;-79
2022/04/03 13:00:42;;;;;;;11.23;10.63;;;;;;;10.34;100.00;102537.85;2018196;71;32824;-76
2022/04/03 13:06:28;;;;;;;12.07;11.40;;;;;;;10.03;100.00;102542.64;1998147;71;32981;-71
2022/04/03 13:12:29;;;;;;;11.67;11.17;;;;;;;9.86;100.00;102538.03;1996958;71;33300;-73
2022/04/03 13:18:13;;;;;;;11.50;10.90;;;;;;;10.19;100.00;102529.15;1998138;71;32922;-75
2022/04/03 13:24:04;;;;;;;11.40;10.90;;;;;;;10.34;100.00;102522.58;2011412;71;32749;-75
2022/04/03 13:29:48;;;;;;;11.77;11.13;;;;;;;10.71;100.00;102511.45;2003765;71;32867;-75
2022/04/03 13:35:37;;;;;;;11.97;11.23;;;;;;;10.55;100.00;102508.05;1928437;73;33519;-75
2022/04/03 13:41:20;;;;;;;12.30;11.70;;;;;;;10.65;100.00;102504.11;2004087;71;32767;-76
2022/04/03 13:47:04;;;;;;;11.60;11.00;;;;;;;10.60;100.00;102502.61;2002163;71;32759;-75
2022/04/03 13:52:49;;;;;;;11.87;11.27;;;;;;;10.36;100.00;102503.17;2007923;71;33253;-72
2022/04/03 13:58:33;;;;;;;11.07;10.57;;;;;;;10.04;100.00;102487.97;2012752;71;32891;-75
2022/04/03 14:04:20;;;;;;;11.93;11.23;;;;;;;10.10;100.00;102491.14;2000000;71;32958;-83
2022/04/03 14:10:07;;;;;;;12.60;11.90;;;;;;;9.91;100.00;102488.20;2016235;71;32824;-81
2022/04/03 14:15:52;;;;;;;11.63;11.07;;;;;;;10.16;100.00;102477.73;2001638;71;32911;-76
2022/04/03 14:21:37;;;;;;;11.80;11.23;;;;;;;10.26;100.00;102469.64;2004397;70;33292;-83
2022/04/03 14:27:23;;;;;;;10.63;10.23;;;;;;;10.32;100.00;102458.07;2009847;71;32905;-76
2022/04/03 14:33:08;;;;;;;11.60;11.10;;;;;;;10.65;100.00;102452.70;1991347;71;32733;-76
2022/04/03 14:38:56;;;;;;;11.80;11.20;;;;;;;10.30;100.00;102446.38;1995262;71;32845;-81
2022/04/03 14:44:40;;;;;;;10.33;9.93;;;;;;;10.57;100.00;102440.55;1994773;71;32908;-78
2022/04/03 14:50:25;;;;;;;10.23;9.73;;;;;;;10.65;100.00;102439.34;2001244;71;32754;-76
2022/04/03 14:56:12;;;;;;;9.53;9.13;;;;;;;10.84;100.00;102430.55;1986220;71;33044;-76
2022/04/03 15:01:56;;;;;;;10.27;9.77;;;;;;;10.89;100.00;102415.36;2014737;71;32809;-75
2022/04/03 15:07:40;;;;;;;10.57;10.07;;;;;;;10.55;100.00;102424.69;1994504;71;32889;-78
2022/04/03 15:13:26;;;;;;;11.00;10.50;;;;;;;10.51;100.00;102412.38;2013445;71;32788;-77
2022/04/03 15:19:13;;;;;;;11.53;10.83;;;;;;;10.62;100.00;102417.58;2014806;71;32984;-78
2022/04/03 15:24:57;;;;;;;12.37;11.67;;;;;;;10.59;100.00;102413.91;2016184;71;33364;-78
2022/04/03 15:30:41;;;;;;;12.90;12.20;;;;;;;10.44;100.00;102404.17;2014858;71;33394;-73
2022/04/03 15:36:25;;;;;;;12.70;12.00;;;;;;;10.33;100.00;102404.22;2018162;71;33033;-79
2022/04/03 15:42:10;;;;;;;12.53;11.90;;;;;;;10.33;100.00;102393.11;2010963;71;32891;-78
2022/04/03 15:47:54;;;;;;;11.70;11.00;;;;;;;10.34;100.00;102399.81;2004146;71;33315;-78
2022/04/03 15:53:38;;;;;;;12.13;11.43;;;;;;;10.36;100.00;102403.71;2005571;71;32890;-76
2022/04/03 15:59:22;;;;;;;12.63;12.03;;;;;;;10.42;100.00;102393.87;1991239;70;33268;-76
2022/04/03 16:05:09;;;;;;;13.10;12.30;;;;;;;10.52;100.00;102378.50;2016381;71;32857;-77
2022/04/03 16:10:55;;;;;;;12.20;11.50;;;;;;;10.35;100.00;102380.67;1991293;70;32761;-78
2022/04/03 16:16:40;;;;;;;12.80;12.20;;;;;;;10.35;100.00;102377.90;2012830;71;32941;-76
2022/04/03 16:22:24;;;;;;;12.07;11.47;;;;;;;10.44;100.00;102367.20;1996821;71;32833;-77
2022/04/03 16:28:12;;;;;;;12.13;11.53;;;;;;;10.41;100.00;102365.78;2016267;71;32924;-75
2022/04/03 16:34:04;;;;;;;12.53;11.93;;;;;;;10.35;100.00;102363.16;1996932;71;32862;-83
2022/04/03 16:39:48;;;;;;;12.20;11.60;;;;;;;10.45;100.00;102355.02;2009266;71;32900;-78
2022/04/03 16:45:32;;;;;;;12.40;11.67;;;;;;;10.56;100.00;102351.91;2009631;71;33305;-78
2022/04/03 16:51:18;;;;;;;12.50;11.90;;;;;;;10.41;100.00;102346.33;2016586;71;32824;-78
2022/04/03 16:57:03;;;;;;;11.70;11.03;;;;;;;10.41;100.00;102334.38;1953090;72;32844;-77
2022/04/03 17:02:47;;;;;;;11.70;11.17;;;;;;;10.52;100.00;102334.05;2003835;71;33318;-78
2022/04/03 17:08:34;;;;;;;12.67;12.07;;;;;;;10.42;100.00;102332.75;2003645;71;33056;-77
2022/04/03 17:14:19;;;;;;;12.57;11.97;;;;;;;10.42;100.00;102333.30;2000382;71;32780;-78
2022/04/03 17:20:04;;;;;;;12.00;11.30;;;;;;;10.37;100.00;102332.65;2011313;71;33301;-73
2022/04/03 17:25:49;;;;;;;11.93;11.30;;;;;;;10.23;100.00;102329.01;2011298;71;32885;-78
2022/04/03 17:31:33;;;;;;;12.13;11.47;;;;;;;10.24;100.00;102326.53;2014750;71;32957;-73
2022/04/03 17:37:17;;;;;;;11.17;10.67;;;;;;;10.22;100.00;102325.41;1995022;71;33257;-73
2022/04/03 17:43:02;;;;;;;12.20;11.63;;;;;;;10.10;100.00;102317.61;2006393;71;33306;-85
2022/04/03 17:48:46;;;;;;;12.00;11.40;;;;;;;9.92;100.00;102316.42;2001904;71;33377;-78
2022/04/03 17:54:30;;;;;;;11.80;11.20;;;;;;;10.02;100.00;102324.94;2004097;71;33334;-78
2022/04/03 18:00:22;;;;;;;11.13;10.63;;;;;;;9.86;100.00;102309.91;1996701;70;33231;-74
2022/04/03 18:06:06;;;;;;;11.47;10.77;;;;;;;9.83;100.00;102309.55;1998156;71;32875;-78
2022/04/03 18:11:51;;;;;;;11.60;10.90;;;;;;;9.73;100.00;102303.23;2018116;71;32883;-78
2022/04/03 18:17:35;;;;;;;10.57;10.13;;;;;;;9.81;100.00;102294.53;2014399;71;32889;-71
2022/04/03 18:23:23;;;;;;;10.90;10.40;;;;;;;9.45;100.00;102292.92;1994742;71;33350;-74
2022/04/03 18:29:08;;;;;;;12.20;11.60;;;;;;;9.47;100.00;102294.04;2004108;71;32760;-74
2022/04/03 18:34:54;;;;;;;11.80;11.13;;;;;;;9.57;100.00;102289.58;2010720;71;32830;-74
2022/04/03 18:40:39;;;;;;;12.00;11.30;;;;;;;9.41;100.00;102286.71;2010838;71;33006;-77
2022/04/03 18:46:23;;;;;;;11.70;11.00;;;;;;;9.16;100.00;102282.77;2010811;71;32879;-75
2022/04/03 18:52:09;;;;;;;11.23;10.67;;;;;;;9.20;100.00;102279.00;1989659;71;32927;-85
2022/04/03 18:57:57;;;;;;;10.60;10.10;;;;;;;9.11;100.00;102271.02;1966483;72;32961;-80
2022/04/03 19:03:40;;;;;;;11.10;10.40;;;;;;;9.14;100.00;102269.17;2017987;71;32897;-76
2022/04/03 19:09:26;;;;;;;10.70;10.10;;;;;;;9.04;100.00;102263.38;2007292;71;32889;-78
2022/04/03 19:15:11;;;;;;;12.50;11.80;;;;;;;8.72;100.00;102269.50;1998550;71;32822;-75
2022/04/03 19:20:56;;;;;;;12.40;11.80;;;;;;;8.44;100.00;102265.98;1991440;71;32886;-78
2022/04/03 19:26:40;;;;;;;12.60;11.80;;;;;;;8.20;100.00;102269.20;1991275;71;32769;-77
2022/04/03 19:32:24;;;;;;;12.17;11.43;;;;;;;8.14;100.00;102268.21;2008926;71;32866;-76
2022/04/03 19:38:08;;;;;;;12.70;11.90;;;;;;;8.04;100.00;102272.63;2000514;71;32999;-77
2022/04/03 19:43:53;;;;;;;12.03;11.23;;;;;;;7.99;100.00;102263.64;2011203;71;32823;-80
2022/04/03 19:49:37;;;;;;;11.97;11.27;;;;;;;7.97;100.00;102254.72;2007878;71;32845;-75
2022/04/03 19:55:22;;;;;;;12.97;12.17;;;;;;;7.68;100.00;102263.30;2018107;71;33485;-75
2022/04/03 20:01:07;;;;;;;12.70;11.93;;;;;;;7.93;100.00;102265.95;1996721;71;32764;-74
2022/04/03 20:06:51;;;;;;;12.33;11.73;;;;;;;7.81;100.00;102269.20;2003467;71;32986;-75
2022/04/03 20:12:36;;;;;;;12.77;12.07;;;;;;;7.86;100.00;102264.36;2010842;71;32982;-74
2022/04/03 20:18:23;;;;;;;12.83;12.03;;;;;;;7.49;100.00;102259.37;1998345;71;33333;-73
2022/04/03 20:24:08;;;;;;;12.97;12.13;;;;;;;7.39;100.00;102257.16;2003481;71;32844;-76
2022/04/03 20:29:53;;;;;;;12.57;11.77;;;;;;;7.61;100.00;102247.88;2000756;71;33287;-73
2022/04/03 20:35:40;;;;;;;12.57;11.87;;;;;;;7.78;100.00;102242.86;2003832;71;33310;-74
2022/04/03 20:41:25;;;;;;;12.50;11.80;;;;;;;7.77;100.00;102246.70;2007712;71;34243;-78
2022/04/03 20:47:10;;;;;;;13.23;12.37;;;;;;;7.65;100.00;102241.65;1994340;71;32926;-70
2022/04/03 20:52:55;;;;;;;12.97;12.17;;;;;;;7.68;100.00;102237.02;2012494;71;32919;-72
2022/04/03 20:58:39;;;;;;;12.73;12.03;;;;;;;7.72;100.00;102237.40;2000612;71;33258;-73
2022/04/03 21:04:24;;;;;;;13.30;12.47;;;;;;;7.60;100.00;102228.20;2003767;71;32837;-70
2022/04/03 21:10:10;;;;;;;14.83;13.73;;;;;;;7.67;100.00;102227.56;2001880;71;32931;-70
2022/04/03 21:15:54;;;;;;;13.73;12.93;;;;;;;7.60;100.00;102216.61;2016430;71;32886;-75
2022/04/03 21:21:40;;;;;;;14.43;13.63;;;;;;;7.51;100.00;102215.76;2003710;71;32998;-75
2022/04/03 21:27:24;;;;;;;13.73;12.87;;;;;;;7.58;100.00;102211.83;2000096;70;32779;-77
2022/04/03 21:33:08;;;;;;;14.63;13.70;;;;;;;7.42;100.00;102213.00;2002201;71;32841;-75
2022/04/03 21:38:54;;;;;;;14.63;13.60;;;;;;;7.44;100.00;102205.33;2009061;71;33039;-76
2022/04/03 21:44:38;;;;;;;15.17;14.07;;;;;;;7.43;100.00;102210.55;2002197;71;32778;-73
2022/04/03 21:50:24;;;;;;;15.33;14.43;;;;;;;7.18;100.00;102204.57;1998067;71;32855;-77
2022/04/03 21:56:08;;;;;;;15.40;14.40;;;;;;;7.12;100.00;102191.66;2007904;71;33292;-76
2022/04/03 22:01:54;;;;;;;16.07;14.97;;;;;;;7.07;100.00;102184.59;2018137;70;32859;-77
2022/04/03 22:07:38;;;;;;;16.80;15.67;;;;;;;7.02;100.00;102187.72;2018033;71;32847;-73
2022/04/03 22:13:24;;;;;;;16.80;15.70;;;;;;;6.93;100.00;102166.46;2016478;71;33396;-76
2022/04/03 22:19:11;;;;;;;15.97;14.97;;;;;;;6.87;100.00;102168.78;2007320;71;32891;-75
2022/04/03 22:24:56;;;;;;;16.67;15.47;;;;;;;7.07;100.00;102160.26;2016469;71;32851;-76
2022/04/03 22:30:40;;;;;;;17.20;16.00;;;;;;;6.99;100.00;102150.90;2011363;71;33243;-74
2022/04/03 22:36:24;;;;;;;18.07;16.77;;;;;;;7.08;100.00;102139.32;2018159;71;33410;-76
2022/04/03 22:42:10;;;;;;;17.50;16.43;;;;;;;7.06;100.00;102132.34;2014439;71;32855;-75
2022/04/03 22:47:54;;;;;;;18.47;17.17;;;;;;;7.10;100.00;102118.37;2003709;71;32918;-74
2022/04/03 22:53:39;;;;;;;18.60;17.50;;;;;;;7.12;100.00;102115.67;2016260;71;33402;-75
2022/04/03 22:59:23;;;;;;;19.83;18.57;;;;;;;7.14;100.00;102114.92;2016433;71;32908;-77
2022/04/03 23:05:09;;;;;;;19.70;18.40;;;;;;;7.10;100.00;102106.76;2002178;71;33350;-72
2022/04/03 23:10:53;;;;;;;21.50;20.10;;;;;;;7.09;100.00;102095.95;1994933;71;32847;-74
2022/04/03 23:16:38;;;;;;;21.20;19.90;;;;;;;7.13;100.00;102081.45;2016224;71;32949;-75
2022/04/03 23:22:23;;;;;;;20.87;19.50;;;;;;;7.19;100.00;102079.66;2016353;71;32973;-73
2022/04/03 23:28:08;;;;;;;23.53;21.57;;;;;;;7.17;100.00;102070.77;2000345;71;32776;-75
2022/04/03 23:33:52;;;;;;;21.47;20.07;;;;;;;7.19;100.00;102069.98;2018166;71;32831;-75
2022/04/03 23:39:36;;;;;;;23.97;22.50;;;;;;;7.19;100.00;102066.68;2016382;71;32903;-77
2022/04/03 23:45:22;;;;;;;23.83;22.17;;;;;;;7.15;100.00;102056.33;2010984;71;32842;-74
2022/04/03 23:51:06;;;;;;;24.60;23.10;;;;;;;7.13;100.00;102059.88;2012710;71;33426;-76
2022/04/03 23:56:50;;;;;;;25.87;24.17;;;;;;;7.23;100.00;102038.89;1976827;71;33522;-73
